sensor_id;sensor_type;location;lat;lon;timestamp;pressure;altitude;pressure_sealevel;temperature;humidity
17711;BME280;8975;57.718;12.134;2022-09-09T00:00:20;115940.22;;;-142.68;46.88
17711;BME280;8975;57.718;12.134;2022-09-09T00:03:05;115940.22;;;-142.68;46.70
17711;BME280;8975;57.718;12.134;2022-09-09T00:05:45;115940.22;;;-142.68;46.70
17711;BME280;8975;57.718;12.134;2022-09-09T00:08:20;115940.22;;;-142.68;46.70
17711;BME280;8975;57.718;12.134;2022-09-09T00:10:54;115940.22;;;-142.68;46.63
17711;BME280;8975;57.718;12.134;2022-09-09T00:16:30;115940.22;;;-142.68;46.47
17711;BME280;8975;57.718;12.134;2022-09-09T00:21:33;115940.22;;;-142.68;45.98
17711;BME280;8975;57.718;12.134;2022-09-09T00:24:00;115940.22;;;-142.68;46.29
17711;BME280;8975;57.718;12.134;2022-09-09T00:26:41;115940.22;;;-142.68;46.34
17711;BME280;8975;57.718;12.134;2022-09-09T00:29:17;115940.22;;;-142.68;46.47
17711;BME280;8975;57.718;12.134;2022-09-09T00:31:47;115940.22;;;-142.68;45.85
17711;BME280;8975;57.718;12.134;2022-09-09T00:34:22;115940.22;;;-142.68;45.96
17711;BME280;8975;57.718;12.134;2022-09-09T00:36:51;115940.22;;;-142.68;45.47
17711;BME280;8975;57.718;12.134;2022-09-09T00:39:34;115940.22;;;-142.68;46.03
17711;BME280;8975;57.718;12.134;2022-09-09T00:42:17;115940.22;;;-142.68;46.22
17711;BME280;8975;57.718;12.134;2022-09-09T00:45:01;115940.22;;;-142.68;45.88
17711;BME280;8975;57.718;12.134;2022-09-09T00:55:54;115940.22;;;-142.68;46.22
17711;BME280;8975;57.718;12.134;2022-09-09T00:58:23;115940.22;;;-142.68;45.97
17711;BME280;8975;57.718;12.134;2022-09-09T01:03:54;115940.22;;;-142.68;46.55
17711;BME280;8975;57.718;12.134;2022-09-09T01:12:02;115940.22;;;-142.68;46.08
17711;BME280;8975;57.718;12.134;2022-09-09T01:17:08;115940.22;;;-142.68;46.74
17711;BME280;8975;57.718;12.134;2022-09-09T01:25:07;115940.22;;;-142.68;47.12
17711;BME280;8975;57.718;12.134;2022-09-09T01:27:38;115940.22;;;-142.68;46.62
17711;BME280;8975;57.718;12.134;2022-09-09T01:30:10;115940.22;;;-142.68;46.60
17711;BME280;8975;57.718;12.134;2022-09-09T01:32:43;115940.22;;;-142.68;46.76
17711;BME280;8975;57.718;12.134;2022-09-09T01:37:57;115940.22;;;-142.68;46.75
17711;BME280;8975;57.718;12.134;2022-09-09T01:40:23;115940.22;;;-142.68;47.01
17711;BME280;8975;57.718;12.134;2022-09-09T01:42:49;115940.22;;;-142.68;46.75
17711;BME280;8975;57.718;12.134;2022-09-09T01:45:14;115940.22;;;-142.68;46.39
17711;BME280;8975;57.718;12.134;2022-09-09T01:47:40;115940.22;;;-142.68;46.60
17711;BME280;8975;57.718;12.134;2022-09-09T01:50:08;115940.22;;;-142.68;46.71
17711;BME280;8975;57.718;12.134;2022-09-09T01:52:36;115940.22;;;-142.68;46.65
17711;BME280;8975;57.718;12.134;2022-09-09T01:55:03;115940.22;;;-142.68;46.55
17711;BME280;8975;57.718;12.134;2022-09-09T02:00:23;115940.22;;;-142.68;47.09
17711;BME280;8975;57.718;12.134;2022-09-09T02:05:48;115940.22;;;-142.68;46.91
17711;BME280;8975;57.718;12.134;2022-09-09T02:08:18;115940.22;;;-142.68;46.80
17711;BME280;8975;57.718;12.134;2022-09-09T02:10:53;115940.22;;;-142.68;46.90
17711;BME280;8975;57.718;12.134;2022-09-09T02:13:21;115940.22;;;-142.68;46.97
17711;BME280;8975;57.718;12.134;2022-09-09T02:15:55;115940.22;;;-142.68;47.00
17711;BME280;8975;57.718;12.134;2022-09-09T02:18:28;115940.22;;;-142.68;47.08
17711;BME280;8975;57.718;12.134;2022-09-09T02:20:56;115940.22;;;-142.68;47.28
17711;BME280;8975;57.718;12.134;2022-09-09T02:23:24;115940.22;;;-142.68;47.08
17711;BME280;8975;57.718;12.134;2022-09-09T02:25:51;115940.22;;;-142.68;47.28
17711;BME280;8975;57.718;12.134;2022-09-09T02:28:20;115940.22;;;-142.68;47.51
17711;BME280;8975;57.718;12.134;2022-09-09T02:30:48;115940.22;;;-142.68;47.56
17711;BME280;8975;57.718;12.134;2022-09-09T02:33:19;115940.22;;;-142.68;47.40
17711;BME280;8975;57.718;12.134;2022-09-09T02:35:45;115940.22;;;-142.68;47.28
17711;BME280;8975;57.718;12.134;2022-09-09T02:38:13;115940.22;;;-142.68;47.38
17711;BME280;8975;57.718;12.134;2022-09-09T02:40:40;115940.22;;;-142.68;48.00
17711;BME280;8975;57.718;12.134;2022-09-09T02:43:05;115940.22;;;-142.68;47.52
17711;BME280;8975;57.718;12.134;2022-09-09T02:48:54;115940.22;;;-142.68;47.05
17711;BME280;8975;57.718;12.134;2022-09-09T02:56:27;115940.22;;;-142.68;47.79
17711;BME280;8975;57.718;12.134;2022-09-09T02:58:55;115940.22;;;-142.68;47.71
17711;BME280;8975;57.718;12.134;2022-09-09T03:01:21;115940.22;;;-142.68;47.84
17711;BME280;8975;57.718;12.134;2022-09-09T03:03:46;115940.22;;;-142.68;47.86
17711;BME280;8975;57.718;12.134;2022-09-09T03:06:12;115940.22;;;-142.68;47.51
17711;BME280;8975;57.718;12.134;2022-09-09T03:08:38;115940.22;;;-142.68;47.32
17711;BME280;8975;57.718;12.134;2022-09-09T03:11:04;115940.22;;;-142.68;47.64
17711;BME280;8975;57.718;12.134;2022-09-09T03:13:29;115940.22;;;-142.68;47.72
17711;BME280;8975;57.718;12.134;2022-09-09T03:15:55;115940.22;;;-142.68;47.18
17711;BME280;8975;57.718;12.134;2022-09-09T03:18:20;115940.22;;;-142.68;47.31
17711;BME280;8975;57.718;12.134;2022-09-09T03:20:46;115940.22;;;-142.68;47.43
17711;BME280;8975;57.718;12.134;2022-09-09T03:23:14;115940.22;;;-142.68;47.22
17711;BME280;8975;57.718;12.134;2022-09-09T03:25:46;115940.22;;;-142.68;47.77
17711;BME280;8975;57.718;12.134;2022-09-09T03:28:11;115940.22;;;-142.68;47.95
17711;BME280;8975;57.718;12.134;2022-09-09T03:30:37;115940.22;;;-142.68;48.22
17711;BME280;8975;57.718;12.134;2022-09-09T03:33:02;115940.22;;;-142.68;47.92
17711;BME280;8975;57.718;12.134;2022-09-09T03:35:29;115940.22;;;-142.68;48.19
17711;BME280;8975;57.718;12.134;2022-09-09T03:37:54;115940.22;;;-142.68;48.06
17711;BME280;8975;57.718;12.134;2022-09-09T03:40:20;115940.22;;;-142.68;48.13
17711;BME280;8975;57.718;12.134;2022-09-09T03:42:46;115940.22;;;-142.68;47.54
17711;BME280;8975;57.718;12.134;2022-09-09T03:45:11;115940.22;;;-142.68;47.67
17711;BME280;8975;57.718;12.134;2022-09-09T03:47:37;115940.22;;;-142.68;47.85
17711;BME280;8975;57.718;12.134;2022-09-09T03:50:03;115940.22;;;-142.68;48.05
17711;BME280;8975;57.718;12.134;2022-09-09T03:52:29;115940.22;;;-142.68;47.99
17711;BME280;8975;57.718;12.134;2022-09-09T03:54:55;115940.22;;;-142.68;47.99
17711;BME280;8975;57.718;12.134;2022-09-09T03:57:22;115940.22;;;-142.68;48.02
17711;BME280;8975;57.718;12.134;2022-09-09T03:59:47;115940.22;;;-142.68;48.14
17711;BME280;8975;57.718;12.134;2022-09-09T04:02:12;115940.22;;;-142.68;47.67
17711;BME280;8975;57.718;12.134;2022-09-09T04:04:38;115940.22;;;-142.68;47.55
17711;BME280;8975;57.718;12.134;2022-09-09T04:07:03;115940.22;;;-142.68;47.54
17711;BME280;8975;57.718;12.134;2022-09-09T04:09:32;115940.22;;;-142.68;47.64
17711;BME280;8975;57.718;12.134;2022-09-09T04:11:57;115940.22;;;-142.68;47.51
17711;BME280;8975;57.718;12.134;2022-09-09T04:14:23;115940.22;;;-142.68;47.40
17711;BME280;8975;57.718;12.134;2022-09-09T04:16:48;115940.22;;;-142.68;47.49
17711;BME280;8975;57.718;12.134;2022-09-09T04:19:14;115940.22;;;-142.68;47.26
17711;BME280;8975;57.718;12.134;2022-09-09T04:21:40;115940.22;;;-142.68;47.54
17711;BME280;8975;57.718;12.134;2022-09-09T04:24:07;115940.22;;;-142.68;47.25
17711;BME280;8975;57.718;12.134;2022-09-09T04:26:34;115940.22;;;-142.68;47.26
17711;BME280;8975;57.718;12.134;2022-09-09T04:29:00;115940.22;;;-142.68;47.40
17711;BME280;8975;57.718;12.134;2022-09-09T04:31:25;115940.22;;;-142.68;47.65
17711;BME280;8975;57.718;12.134;2022-09-09T04:33:51;115940.22;;;-142.68;47.82
17711;BME280;8975;57.718;12.134;2022-09-09T04:36:17;115940.22;;;-142.68;47.82
17711;BME280;8975;57.718;12.134;2022-09-09T04:38:45;115940.22;;;-142.68;47.68
17711;BME280;8975;57.718;12.134;2022-09-09T04:41:11;115940.22;;;-142.68;48.21
17711;BME280;8975;57.718;12.134;2022-09-09T04:43:38;115940.22;;;-142.68;48.00
17711;BME280;8975;57.718;12.134;2022-09-09T04:46:04;115940.22;;;-142.68;47.91
17711;BME280;8975;57.718;12.134;2022-09-09T04:48:30;115940.22;;;-142.68;47.48
17711;BME280;8975;57.718;12.134;2022-09-09T04:50:58;115940.22;;;-142.68;47.92
17711;BME280;8975;57.718;12.134;2022-09-09T04:53:24;115940.22;;;-142.68;47.32
17711;BME280;8975;57.718;12.134;2022-09-09T04:55:51;115940.22;;;-142.68;47.46
17711;BME280;8975;57.718;12.134;2022-09-09T04:58:17;115940.22;;;-142.68;47.51
17711;BME280;8975;57.718;12.134;2022-09-09T05:00:42;115940.22;;;-142.68;47.56
17711;BME280;8975;57.718;12.134;2022-09-09T05:03:08;115940.22;;;-142.68;47.36
17711;BME280;8975;57.718;12.134;2022-09-09T05:05:34;115940.22;;;-142.68;47.53
17711;BME280;8975;57.718;12.134;2022-09-09T05:08:04;115940.22;;;-142.68;47.58
17711;BME280;8975;57.718;12.134;2022-09-09T05:10:31;115940.22;;;-142.68;48.05
17711;BME280;8975;57.718;12.134;2022-09-09T05:12:56;115940.22;;;-142.68;47.67
17711;BME280;8975;57.718;12.134;2022-09-09T05:15:22;115940.22;;;-142.68;47.48
17711;BME280;8975;57.718;12.134;2022-09-09T05:17:47;115940.22;;;-142.68;47.28
17711;BME280;8975;57.718;12.134;2022-09-09T05:20:13;115940.22;;;-142.68;47.52
17711;BME280;8975;57.718;12.134;2022-09-09T05:22:38;115940.22;;;-142.68;47.02
17711;BME280;8975;57.718;12.134;2022-09-09T05:25:04;115940.22;;;-142.68;47.13
17711;BME280;8975;57.718;12.134;2022-09-09T05:27:30;115940.22;;;-142.68;47.36
17711;BME280;8975;57.718;12.134;2022-09-09T05:29:58;115940.22;;;-142.68;46.76
17711;BME280;8975;57.718;12.134;2022-09-09T05:32:23;115940.22;;;-142.68;47.07
17711;BME280;8975;57.718;12.134;2022-09-09T05:34:49;115940.22;;;-142.68;47.41
17711;BME280;8975;57.718;12.134;2022-09-09T05:37:15;115940.22;;;-142.68;46.76
17711;BME280;8975;57.718;12.134;2022-09-09T05:39:41;115940.22;;;-142.68;46.87
17711;BME280;8975;57.718;12.134;2022-09-09T05:42:06;115940.22;;;-142.68;46.70
17711;BME280;8975;57.718;12.134;2022-09-09T05:44:32;115940.22;;;-142.68;47.00
17711;BME280;8975;57.718;12.134;2022-09-09T05:46:57;115940.22;;;-142.68;47.70
17711;BME280;8975;57.718;12.134;2022-09-09T05:49:23;115940.22;;;-142.68;47.49
17711;BME280;8975;57.718;12.134;2022-09-09T05:51:49;115940.22;;;-142.68;47.62
17711;BME280;8975;57.718;12.134;2022-09-09T05:54:16;115940.22;;;-142.68;47.22
17711;BME280;8975;57.718;12.134;2022-09-09T05:56:41;115940.22;;;-142.68;47.31
17711;BME280;8975;57.718;12.134;2022-09-09T05:59:07;115940.22;;;-142.68;47.23
17711;BME280;8975;57.718;12.134;2022-09-09T06:01:35;115940.22;;;-142.68;47.18
17711;BME280;8975;57.718;12.134;2022-09-09T06:04:01;115940.22;;;-142.68;47.30
17711;BME280;8975;57.718;12.134;2022-09-09T06:06:30;115940.22;;;-142.68;46.83
17711;BME280;8975;57.718;12.134;2022-09-09T06:08:57;115940.22;;;-142.68;47.11
17711;BME280;8975;57.718;12.134;2022-09-09T06:11:34;115940.22;;;-142.68;47.36
17711;BME280;8975;57.718;12.134;2022-09-09T06:14:01;115940.22;;;-142.68;47.06
17711;BME280;8975;57.718;12.134;2022-09-09T06:16:28;115940.22;;;-142.68;46.69
17711;BME280;8975;57.718;12.134;2022-09-09T06:18:55;115940.22;;;-142.68;46.91
17711;BME280;8975;57.718;12.134;2022-09-09T06:21:28;115940.22;;;-142.68;47.05
17711;BME280;8975;57.718;12.134;2022-09-09T06:23:55;115940.22;;;-142.68;47.13
17711;BME280;8975;57.718;12.134;2022-09-09T06:26:28;115940.22;;;-142.68;46.85
17711;BME280;8975;57.718;12.134;2022-09-09T06:28:55;115940.22;;;-142.68;46.78
17711;BME280;8975;57.718;12.134;2022-09-09T06:31:24;115940.22;;;-142.68;47.09
17711;BME280;8975;57.718;12.134;2022-09-09T06:33:52;115940.22;;;-142.68;46.96
17711;BME280;8975;57.718;12.134;2022-09-09T06:36:26;115940.22;;;-142.68;46.97
17711;BME280;8975;57.718;12.134;2022-09-09T06:38:53;115940.22;;;-142.68;47.16
17711;BME280;8975;57.718;12.134;2022-09-09T06:41:20;115940.22;;;-142.68;46.94
17711;BME280;8975;57.718;12.134;2022-09-09T06:43:46;115940.22;;;-142.68;47.09
17711;BME280;8975;57.718;12.134;2022-09-09T06:46:15;115940.22;;;-142.68;47.26
17711;BME280;8975;57.718;12.134;2022-09-09T06:48:41;115940.22;;;-142.68;47.40
17711;BME280;8975;57.718;12.134;2022-09-09T06:51:13;115940.22;;;-142.68;47.08
17711;BME280;8975;57.718;12.134;2022-09-09T06:53:41;115940.22;;;-142.68;46.79
17711;BME280;8975;57.718;12.134;2022-09-09T06:58:36;115940.22;;;-142.68;47.90
17711;BME280;8975;57.718;12.134;2022-09-09T07:01:04;115940.22;;;-142.68;47.98
17711;BME280;8975;57.718;12.134;2022-09-09T07:03:29;115940.22;;;-142.68;47.78
17711;BME280;8975;57.718;12.134;2022-09-09T07:05:56;115940.22;;;-142.68;47.00
17711;BME280;8975;57.718;12.134;2022-09-09T07:08:22;115940.22;;;-142.68;47.58
17711;BME280;8975;57.718;12.134;2022-09-09T07:10:47;115940.22;;;-142.68;47.54
17711;BME280;8975;57.718;12.134;2022-09-09T07:13:13;115940.22;;;-142.68;47.25
17711;BME280;8975;57.718;12.134;2022-09-09T07:15:41;115940.22;;;-142.68;47.38
17711;BME280;8975;57.718;12.134;2022-09-09T07:18:07;115940.22;;;-142.68;47.77
17711;BME280;8975;57.718;12.134;2022-09-09T07:20:32;115940.22;;;-142.68;47.30
17711;BME280;8975;57.718;12.134;2022-09-09T07:22:58;115940.22;;;-142.68;47.28
17711;BME280;8975;57.718;12.134;2022-09-09T07:25:25;115940.22;;;-142.68;47.40
17711;BME280;8975;57.718;12.134;2022-09-09T07:27:53;115940.22;;;-142.68;47.46
17711;BME280;8975;57.718;12.134;2022-09-09T07:30:20;115940.22;;;-142.68;47.61
17711;BME280;8975;57.718;12.134;2022-09-09T07:32:45;115940.22;;;-142.68;47.28
17711;BME280;8975;57.718;12.134;2022-09-09T07:35:11;115940.22;;;-142.68;47.83
17711;BME280;8975;57.718;12.134;2022-09-09T07:37:37;115940.22;;;-142.68;47.43
17711;BME280;8975;57.718;12.134;2022-09-09T07:40:03;115940.22;;;-142.68;47.23
17711;BME280;8975;57.718;12.134;2022-09-09T07:42:29;115940.22;;;-142.68;47.66
17711;BME280;8975;57.718;12.134;2022-09-09T07:44:55;115940.22;;;-142.68;47.92
17711;BME280;8975;57.718;12.134;2022-09-09T07:47:20;115940.22;;;-142.68;47.51
17711;BME280;8975;57.718;12.134;2022-09-09T07:49:49;115940.22;;;-142.68;47.36
17711;BME280;8975;57.718;12.134;2022-09-09T07:52:15;115940.22;;;-142.68;47.33
17711;BME280;8975;57.718;12.134;2022-09-09T07:54:41;115940.22;;;-142.68;47.34
17711;BME280;8975;57.718;12.134;2022-09-09T07:57:07;115940.22;;;-142.68;47.88
17711;BME280;8975;57.718;12.134;2022-09-09T07:59:32;115940.22;;;-142.68;47.74
17711;BME280;8975;57.718;12.134;2022-09-09T08:01:58;115940.22;;;-142.68;47.61
17711;BME280;8975;57.718;12.134;2022-09-09T08:04:25;115940.22;;;-142.68;47.79
17711;BME280;8975;57.718;12.134;2022-09-09T08:06:59;115940.22;;;-142.68;47.93
17711;BME280;8975;57.718;12.134;2022-09-09T08:09:26;115940.22;;;-142.68;47.25
17711;BME280;8975;57.718;12.134;2022-09-09T08:11:54;115940.22;;;-142.68;47.38
17711;BME280;8975;57.718;12.134;2022-09-09T08:14:20;115940.22;;;-142.68;47.32
17711;BME280;8975;57.718;12.134;2022-09-09T08:16:47;115940.22;;;-142.68;47.38
17711;BME280;8975;57.718;12.134;2022-09-09T08:19:13;115940.22;;;-142.68;46.91
17711;BME280;8975;57.718;12.134;2022-09-09T08:21:43;115940.22;;;-142.68;47.13
17711;BME280;8975;57.718;12.134;2022-09-09T08:24:11;115940.22;;;-142.68;47.40
17711;BME280;8975;57.718;12.134;2022-09-09T08:26:41;115940.22;;;-142.68;47.17
17711;BME280;8975;57.718;12.134;2022-09-09T08:29:11;115940.22;;;-142.68;46.99
17711;BME280;8975;57.718;12.134;2022-09-09T08:31:40;115940.22;;;-142.68;47.07
17711;BME280;8975;57.718;12.134;2022-09-09T08:34:07;115940.22;;;-142.68;47.11
17711;BME280;8975;57.718;12.134;2022-09-09T08:36:39;115940.22;;;-142.68;47.86
17711;BME280;8975;57.718;12.134;2022-09-09T08:39:06;115940.22;;;-142.68;47.65
17711;BME280;8975;57.718;12.134;2022-09-09T08:53:01;115940.22;;;-142.68;47.02
17711;BME280;8975;57.718;12.134;2022-09-09T08:55:47;115940.22;;;-142.68;47.08
17711;BME280;8975;57.718;12.134;2022-09-09T08:58:17;115940.22;;;-142.68;46.71
17711;BME280;8975;57.718;12.134;2022-09-09T09:03:51;115940.22;;;-142.68;47.12
17711;BME280;8975;57.718;12.134;2022-09-09T09:09:01;115940.22;;;-142.68;46.67
17711;BME280;8975;57.718;12.134;2022-09-09T09:11:35;115940.22;;;-142.68;47.05
17711;BME280;8975;57.718;12.134;2022-09-09T09:14:11;115940.22;;;-142.68;46.79
17711;BME280;8975;57.718;12.134;2022-09-09T09:19:33;115940.22;;;-142.68;46.57
17711;BME280;8975;57.718;12.134;2022-09-09T09:22:01;115940.22;;;-142.68;46.82
17711;BME280;8975;57.718;12.134;2022-09-09T09:27:00;115940.22;;;-142.68;46.78
17711;BME280;8975;57.718;12.134;2022-09-09T09:29:33;115940.22;;;-142.68;46.65
17711;BME280;8975;57.718;12.134;2022-09-09T09:32:02;115940.22;;;-142.68;46.48
17711;BME280;8975;57.718;12.134;2022-09-09T09:34:28;115940.22;;;-142.68;46.42
17711;BME280;8975;57.718;12.134;2022-09-09T09:36:59;115940.22;;;-142.68;46.46
17711;BME280;8975;57.718;12.134;2022-09-09T09:39:30;115940.22;;;-142.68;46.39
17711;BME280;8975;57.718;12.134;2022-09-09T09:41:56;115940.22;;;-142.68;46.36
17711;BME280;8975;57.718;12.134;2022-09-09T09:44:41;115940.22;;;-142.68;46.52
17711;BME280;8975;57.718;12.134;2022-09-09T09:47:11;115940.22;;;-142.68;46.79
17711;BME280;8975;57.718;12.134;2022-09-09T09:49:37;115940.22;;;-142.68;46.54
17711;BME280;8975;57.718;12.134;2022-09-09T09:52:04;115940.22;;;-142.68;47.04
17711;BME280;8975;57.718;12.134;2022-09-09T09:54:33;115940.22;;;-142.68;47.35
17711;BME280;8975;57.718;12.134;2022-09-09T09:57:17;115940.22;;;-142.68;48.19
17711;BME280;8975;57.718;12.134;2022-09-09T09:59:43;115940.22;;;-142.68;47.98
17711;BME280;8975;57.718;12.134;2022-09-09T10:04:37;115940.22;;;-142.68;48.67
17711;BME280;8975;57.718;12.134;2022-09-09T10:07:20;115940.22;;;-142.68;48.88
17711;BME280;8975;57.718;12.134;2022-09-09T10:09:51;115940.22;;;-142.68;49.49
17711;BME280;8975;57.718;12.134;2022-09-09T10:12:28;115940.22;;;-142.68;49.51
17711;BME280;8975;57.718;12.134;2022-09-09T10:15:21;115940.22;;;-142.68;48.65
17711;BME280;8975;57.718;12.134;2022-09-09T10:22:51;115940.22;;;-142.68;48.81
17711;BME280;8975;57.718;12.134;2022-09-09T10:34:03;115940.22;;;-142.68;52.11
17711;BME280;8975;57.718;12.134;2022-09-09T10:36:40;115940.22;;;-142.68;51.98
17711;BME280;8975;57.718;12.134;2022-09-09T10:42:12;115940.22;;;-142.68;52.75
17711;BME280;8975;57.718;12.134;2022-09-09T10:52:45;115940.22;;;-142.68;52.77
17711;BME280;8975;57.718;12.134;2022-09-09T10:55:20;115940.22;;;-142.68;52.99
17711;BME280;8975;57.718;12.134;2022-09-09T10:57:52;115940.22;;;-142.68;52.90
17711;BME280;8975;57.718;12.134;2022-09-09T11:00:24;115940.22;;;-142.68;52.98
17711;BME280;8975;57.718;12.134;2022-09-09T11:05:21;115940.22;;;-142.68;53.38
17711;BME280;8975;57.718;12.134;2022-09-09T11:07:52;115940.22;;;-142.68;53.53
17711;BME280;8975;57.718;12.134;2022-09-09T11:10:41;115940.22;;;-142.68;53.95
17711;BME280;8975;57.718;12.134;2022-09-09T11:19:11;115940.22;;;-142.68;53.80
17711;BME280;8975;57.718;12.134;2022-09-09T11:21:47;115940.22;;;-142.68;53.86
17711;BME280;8975;57.718;12.134;2022-09-09T11:24:26;115940.22;;;-142.68;54.40
17711;BME280;8975;57.718;12.134;2022-09-09T11:41:05;115940.22;;;-142.68;54.85
17711;BME280;8975;57.718;12.134;2022-09-09T11:43:48;115940.22;;;-142.68;54.83
17711;BME280;8975;57.718;12.134;2022-09-09T11:46:22;115940.22;;;-142.68;55.15
17711;BME280;8975;57.718;12.134;2022-09-09T11:49:04;115940.22;;;-142.68;54.96
17711;BME280;8975;57.718;12.134;2022-09-09T11:51:32;115940.22;;;-142.68;55.28
17711;BME280;8975;57.718;12.134;2022-09-09T11:53:59;115940.22;;;-142.68;55.07
17711;BME280;8975;57.718;12.134;2022-09-09T11:56:47;115940.22;;;-142.68;54.97
17711;BME280;8975;57.718;12.134;2022-09-09T11:59:32;115940.22;;;-142.68;55.35
17711;BME280;8975;57.718;12.134;2022-09-09T12:02:27;115940.22;;;-142.68;55.78
17711;BME280;8975;57.718;12.134;2022-09-09T12:05:00;115940.22;;;-142.68;55.49
17711;BME280;8975;57.718;12.134;2022-09-09T12:07:55;115940.22;;;-142.68;56.27
17711;BME280;8975;57.718;12.134;2022-09-09T12:10:33;115940.22;;;-142.68;56.50
17711;BME280;8975;57.718;12.134;2022-09-09T12:13:18;115940.22;;;-142.68;56.28
17711;BME280;8975;57.718;12.134;2022-09-09T12:15:49;115940.22;;;-142.68;55.86
17711;BME280;8975;57.718;12.134;2022-09-09T12:18:32;115940.22;;;-142.68;56.04
17711;BME280;8975;57.718;12.134;2022-09-09T12:32:10;115940.22;;;-142.68;55.67
17711;BME280;8975;57.718;12.134;2022-09-09T12:34:39;115940.22;;;-142.68;56.28
17711;BME280;8975;57.718;12.134;2022-09-09T12:37:14;115940.22;;;-142.68;56.22
17711;BME280;8975;57.718;12.134;2022-09-09T12:39:47;115940.22;;;-142.68;56.48
17711;BME280;8975;57.718;12.134;2022-09-09T12:42:19;115940.22;;;-142.68;56.38
17711;BME280;8975;57.718;12.134;2022-09-09T12:44:56;115940.22;;;-142.68;56.07
17711;BME280;8975;57.718;12.134;2022-09-09T12:47:53;115940.22;;;-142.68;56.25
17711;BME280;8975;57.718;12.134;2022-09-09T12:50:25;115940.22;;;-142.68;56.26
17711;BME280;8975;57.718;12.134;2022-09-09T12:52:57;115940.22;;;-142.68;56.69
17711;BME280;8975;57.718;12.134;2022-09-09T12:55:28;115940.22;;;-142.68;56.53
17711;BME280;8975;57.718;12.134;2022-09-09T12:57:58;115940.22;;;-142.68;57.17
17711;BME280;8975;57.718;12.134;2022-09-09T13:00:25;115940.22;;;-142.68;56.54
17711;BME280;8975;57.718;12.134;2022-09-09T13:02:56;115940.22;;;-142.68;56.28
17711;BME280;8975;57.718;12.134;2022-09-09T13:05:25;115940.22;;;-142.68;56.07
17711;BME280;8975;57.718;12.134;2022-09-09T13:07:51;115940.22;;;-142.68;56.24
17711;BME280;8975;57.718;12.134;2022-09-09T13:10:26;115940.22;;;-142.68;56.07
17711;BME280;8975;57.718;12.134;2022-09-09T13:12:52;115940.22;;;-142.68;55.98
17711;BME280;8975;57.718;12.134;2022-09-09T13:15:24;115940.22;;;-142.68;56.59
17711;BME280;8975;57.718;12.134;2022-09-09T13:17:57;115940.22;;;-142.68;56.83
17711;BME280;8975;57.718;12.134;2022-09-09T13:20:23;115940.22;;;-142.68;56.72
17711;BME280;8975;57.718;12.134;2022-09-09T13:22:50;115940.22;;;-142.68;56.63
17711;BME280;8975;57.718;12.134;2022-09-09T13:25:24;115940.22;;;-142.68;57.01
17711;BME280;8975;57.718;12.134;2022-09-09T13:28:20;115940.22;;;-142.68;56.98
17711;BME280;8975;57.718;12.134;2022-09-09T13:30:59;115940.22;;;-142.68;56.95
17711;BME280;8975;57.718;12.134;2022-09-09T13:33:34;115940.22;;;-142.68;57.03
17711;BME280;8975;57.718;12.134;2022-09-09T13:36:09;115940.22;;;-142.68;56.87
17711;BME280;8975;57.718;12.134;2022-09-09T13:38:53;115940.22;;;-142.68;57.55
17711;BME280;8975;57.718;12.134;2022-09-09T13:41:21;115940.22;;;-142.68;57.23
17711;BME280;8975;57.718;12.134;2022-09-09T13:43:49;115940.22;;;-142.68;57.28
17711;BME280;8975;57.718;12.134;2022-09-09T13:46:36;115940.22;;;-142.68;57.03
17711;BME280;8975;57.718;12.134;2022-09-09T13:49:19;115940.22;;;-142.68;56.77
17711;BME280;8975;57.718;12.134;2022-09-09T13:51:48;115940.22;;;-142.68;56.74
17711;BME280;8975;57.718;12.134;2022-09-09T13:54:17;115940.22;;;-142.68;57.23
17711;BME280;8975;57.718;12.134;2022-09-09T13:56:44;115940.22;;;-142.68;57.41
17711;BME280;8975;57.718;12.134;2022-09-09T13:59:15;115940.22;;;-142.68;57.62
17711;BME280;8975;57.718;12.134;2022-09-09T14:01:41;115940.22;;;-142.68;56.96
17711;BME280;8975;57.718;12.134;2022-09-09T14:04:07;115940.22;;;-142.68;56.74
17711;BME280;8975;57.718;12.134;2022-09-09T14:06:37;115940.22;;;-142.68;57.78
17711;BME280;8975;57.718;12.134;2022-09-09T14:09:05;115940.22;;;-142.68;57.09
17711;BME280;8975;57.718;12.134;2022-09-09T14:11:31;115940.22;;;-142.68;58.42
17711;BME280;8975;57.718;12.134;2022-09-09T14:13:57;115940.22;;;-142.68;58.67
17711;BME280;8975;57.718;12.134;2022-09-09T14:16:22;115940.22;;;-142.68;58.80
17711;BME280;8975;57.718;12.134;2022-09-09T14:18:48;115940.22;;;-142.68;58.75
17711;BME280;8975;57.718;12.134;2022-09-09T14:21:13;115940.22;;;-142.68;58.79
17711;BME280;8975;57.718;12.134;2022-09-09T14:23:40;115940.22;;;-142.68;58.46
17711;BME280;8975;57.718;12.134;2022-09-09T14:26:06;115940.22;;;-142.68;58.44
17711;BME280;8975;57.718;12.134;2022-09-09T14:28:33;115940.22;;;-142.68;58.28
17711;BME280;8975;57.718;12.134;2022-09-09T14:31:03;115940.22;;;-142.68;58.08
17711;BME280;8975;57.718;12.134;2022-09-09T14:33:29;115940.22;;;-142.68;58.03
17711;BME280;8975;57.718;12.134;2022-09-09T14:36:02;115940.22;;;-142.68;59.13
17711;BME280;8975;57.718;12.134;2022-09-09T14:38:30;115940.22;;;-142.68;59.51
17711;BME280;8975;57.718;12.134;2022-09-09T14:40:56;115940.22;;;-142.68;59.19
17711;BME280;8975;57.718;12.134;2022-09-09T14:43:21;115940.22;;;-142.68;58.76
17711;BME280;8975;57.718;12.134;2022-09-09T14:45:47;115940.22;;;-142.68;58.83
17711;BME280;8975;57.718;12.134;2022-09-09T14:48:17;115940.22;;;-142.68;58.91
17711;BME280;8975;57.718;12.134;2022-09-09T14:50:42;115940.22;;;-142.68;58.55
17711;BME280;8975;57.718;12.134;2022-09-09T14:53:09;115940.22;;;-142.68;58.26
17711;BME280;8975;57.718;12.134;2022-09-09T14:55:35;115940.22;;;-142.68;58.31